Time;durP1;ratioP1;P1;durP2;ratioP2;P2;SDS_P1;SDS_P2;PMS_P1;PMS_P2;Temp;Humidity;BMP_temperature;BMP_pressure;BME280_temperature;BME280_humidity;BME280_pressure;Samples;Min_cycle;Max_cycle;Signal;HPM_P1;HPM_P2
2022/12/01 00:02:15;;;;;;;42.33;16.35;;;5.60;99.90;;;;;;5033185;28;20053;-38
2022/12/01 00:04:41;;;;;;;41.80;15.70;;;5.60;99.90;;;;;;5034278;28;20498;-40
2022/12/01 00:07:07;;;;;;;44.00;16.02;;;5.60;99.90;;;;;;5035368;28;20049;-38
2022/12/01 00:12:16;;;;;;;44.08;15.88;;;5.60;99.90;;;;;;5033768;28;20037;-38
2022/12/01 00:14:42;;;;;;;42.35;17.00;;;5.60;99.90;;;;;;5036619;28;20048;-40
2022/12/01 00:17:07;;;;;;;42.25;15.90;;;5.60;99.90;;;;;;5031561;28;20033;-38
2022/12/01 00:19:33;;;;;;;42.90;16.15;;;5.60;99.90;;;;;;5039356;28;20048;-38
2022/12/01 00:21:59;;;;;;;42.25;16.38;;;5.70;99.90;;;;;;5037595;28;20128;-40
2022/12/01 00:24:24;;;;;;;43.30;16.52;;;5.70;99.90;;;;;;5040860;28;20040;-38
2022/12/01 00:26:50;;;;;;;42.15;15.88;;;5.60;99.90;;;;;;5038158;28;20082;-40
2022/12/01 00:29:16;;;;;;;35.47;13.75;;;5.60;99.90;;;;;;5041044;28;20120;-38
2022/12/01 00:31:41;;;;;;;42.83;16.25;;;5.60;99.90;;;;;;5024163;28;20040;-38
2022/12/01 00:34:24;;;;;;;39.72;16.05;;;5.60;99.90;;;;;;5036157;28;20076;-38
2022/12/01 00:36:50;;;;;;;40.72;15.48;;;5.70;99.90;;;;;;5056866;28;20053;-37
2022/12/01 00:39:16;;;;;;;50.88;18.08;;;5.70;99.90;;;;;;5058931;28;20044;-38
2022/12/01 00:41:41;;;;;;;46.05;17.35;;;5.70;99.90;;;;;;5060675;28;20501;-38
2022/12/01 00:44:07;;;;;;;37.40;14.45;;;5.70;99.90;;;;;;5058035;28;20040;-38
2022/12/01 00:46:33;;;;;;;39.25;15.38;;;5.70;99.90;;;;;;5057923;28;20497;-38
2022/12/01 00:48:58;;;;;;;43.33;15.77;;;5.70;99.90;;;;;;5059649;28;20127;-38
2022/12/01 00:51:24;;;;;;;40.42;15.00;;;5.70;99.90;;;;;;5059685;28;20482;-38
2022/12/01 00:53:50;;;;;;;43.95;17.48;;;5.70;99.90;;;;;;5056981;28;20041;-38
2022/12/01 00:56:15;;;;;;;44.40;16.75;;;5.70;99.90;;;;;;5056068;28;20044;-38
2022/12/01 00:58:41;;;;;;;49.20;17.30;;;5.70;99.90;;;;;;5057936;28;20116;-38
2022/12/01 01:01:06;;;;;;;45.97;17.73;;;5.60;99.90;;;;;;5057399;28;20489;-38
2022/12/01 01:03:33;;;;;;;43.40;15.73;;;5.60;99.90;;;;;;5064020;28;20032;-38
2022/12/01 01:06:09;;;;;;;42.75;16.33;;;5.70;99.90;;;;;;5058064;28;20045;-39
2022/12/01 01:08:35;;;;;;;42.20;16.52;;;5.70;99.90;;;;;;5056417;28;20040;-38
2022/12/01 01:11:01;;;;;;;48.80;17.48;;;5.70;99.90;;;;;;5060936;28;20606;-38
2022/12/01 01:13:27;;;;;;;42.17;16.13;;;5.70;99.90;;;;;;5059628;28;20063;-37
2022/12/01 01:16:01;;;;;;;49.05;17.77;;;5.70;99.90;;;;;;5061891;28;20095;-38
2022/12/01 01:18:27;;;;;;;42.42;15.90;;;5.70;99.90;;;;;;5056009;28;20087;-38
2022/12/01 01:21:14;;;;;;;40.70;15.45;;;5.70;99.90;;;;;;5058642;28;20075;-38
2022/12/01 01:23:40;;;;;;;46.03;17.13;;;5.70;99.90;;;;;;5063103;28;20072;-38
2022/12/01 01:26:32;;;;;;;47.58;16.67;;;5.70;99.90;;;;;;5058892;28;20868;-38
2022/12/01 01:29:01;;;;;;;46.65;17.05;;;5.70;99.90;;;;;;5051521;28;20068;-38
2022/12/01 01:31:28;;;;;;;43.42;16.83;;;5.70;99.90;;;;;;5060518;28;20049;-38
2022/12/01 01:33:55;;;;;;;39.35;14.55;;;5.70;99.90;;;;;;5050660;28;20071;-39
2022/12/01 01:36:21;;;;;;;40.38;15.38;;;5.70;99.90;;;;;;5062134;28;20083;-39
2022/12/01 01:38:50;;;;;;;47.58;17.75;;;5.70;99.90;;;;;;5057908;28;20052;-38
2022/12/01 01:41:16;;;;;;;51.03;17.30;;;5.70;99.90;;;;;;5056756;28;20086;-38
2022/12/01 01:43:48;;;;;;;47.10;15.50;;;5.70;99.90;;;;;;5056653;28;20106;-38
2022/12/01 01:46:22;;;;;;;47.67;18.90;;;5.70;99.90;;;;;;5060298;28;20036;-39
2022/12/01 01:49:07;;;;;;;42.67;16.52;;;5.70;99.90;;;;;;5049693;28;20068;-38
2022/12/01 01:51:40;;;;;;;39.85;15.32;;;5.70;99.90;;;;;;5054873;28;20060;-39
2022/12/01 01:54:23;;;;;;;52.58;17.88;;;5.70;99.90;;;;;;5060072;28;20525;-37
2022/12/01 01:56:51;;;;;;;48.20;17.75;;;5.70;99.90;;;;;;5063692;28;20485;-38
2022/12/01 01:59:27;;;;;;;48.13;16.70;;;5.70;99.90;;;;;;5059404;28;20048;-37
2022/12/01 02:02:07;;;;;;;41.15;15.75;;;5.70;99.90;;;;;;5061332;28;20962;-37
2022/12/01 02:04:39;;;;;;;40.92;15.73;;;5.70;99.90;;;;;;5063051;28;20036;-38
2022/12/01 02:07:06;;;;;;;41.85;16.05;;;5.70;99.90;;;;;;5061218;28;20115;-38
2022/12/01 02:09:32;;;;;;;45.80;16.90;;;5.70;99.90;;;;;;5059964;28;20043;-38
2022/12/01 02:12:21;;;;;;;43.70;17.63;;;5.70;99.90;;;;;;5055207;28;20044;-38
2022/12/01 02:14:55;;;;;;;46.90;16.88;;;5.70;99.90;;;;;;5061950;28;20033;-38
2022/12/01 02:17:32;;;;;;;33.40;13.30;;;5.70;99.90;;;;;;5059907;28;20516;-38
2022/12/01 02:20:19;;;;;;;43.22;16.13;;;5.70;99.90;;;;;;5056220;28;20063;-38
2022/12/01 02:22:54;;;;;;;38.75;15.48;;;5.60;99.90;;;;;;5059680;28;20044;-38
2022/12/01 02:25:28;;;;;;;45.42;17.98;;;5.70;99.90;;;;;;5058501;28;20535;-38
2022/12/01 02:28:31;;;;;;;46.67;15.43;;;5.70;99.90;;;;;;5055374;28;20083;-38
2022/12/01 02:31:11;;;;;;;45.20;16.45;;;5.70;99.90;;;;;;5054804;28;20510;-38
2022/12/01 02:33:54;;;;;;;43.78;17.42;;;5.70;99.90;;;;;;5058774;28;20055;-38
2022/12/01 02:36:33;;;;;;;50.40;17.75;;;5.70;99.90;;;;;;5055434;28;20063;-38
2022/12/01 02:39:12;;;;;;;40.13;16.88;;;5.60;99.90;;;;;;5056891;28;20123;-38
2022/12/01 02:41:50;;;;;;;47.47;17.15;;;5.60;99.90;;;;;;5060693;28;20036;-38
2022/12/01 02:44:30;;;;;;;42.92;15.50;;;5.70;99.90;;;;;;5059636;28;20048;-38
2022/12/01 02:47:01;;;;;;;39.20;15.88;;;5.60;99.90;;;;;;5058253;28;20068;-38
2022/12/01 02:49:37;;;;;;;45.50;17.52;;;5.60;99.90;;;;;;5066948;28;20040;-38
2022/12/01 02:52:05;;;;;;;36.55;14.65;;;5.60;99.90;;;;;;5062099;28;20037;-37
2022/12/01 02:54:32;;;;;;;38.63;15.85;;;5.60;99.90;;;;;;5063203;28;20440;-38
2022/12/01 02:56:58;;;;;;;33.47;14.73;;;5.60;99.90;;;;;;5054831;28;20041;-38
2022/12/01 02:59:24;;;;;;;32.60;13.65;;;5.60;99.90;;;;;;5061856;28;20478;-38
2022/12/01 03:02:12;;;;;;;36.33;13.57;;;5.60;99.90;;;;;;5054397;28;20041;-38
2022/12/01 03:05:01;;;;;;;43.53;16.52;;;5.60;99.90;;;;;;5054432;28;20067;-38
2022/12/01 03:07:52;;;;;;;37.72;14.75;;;5.60;99.90;;;;;;5062889;28;20046;-37
2022/12/01 03:10:46;;;;;;;45.10;16.63;;;5.60;99.90;;;;;;5062626;28;20033;-37
2022/12/01 03:13:31;;;;;;;43.25;16.60;;;5.60;99.90;;;;;;5057780;28;20048;-38
2022/12/01 03:16:23;;;;;;;37.05;13.80;;;5.60;99.90;;;;;;5060759;28;20135;-40
2022/12/01 03:19:08;;;;;;;49.85;19.58;;;5.60;99.90;;;;;;5064665;28;20117;-38
2022/12/01 03:21:46;;;;;;;41.15;14.90;;;5.60;99.90;;;;;;5056174;28;20819;-38
2022/12/01 03:24:15;;;;;;;44.90;16.75;;;5.60;99.90;;;;;;5059997;28;20036;-38
2022/12/01 03:26:45;;;;;;;38.65;14.63;;;5.60;99.90;;;;;;5062244;28;20048;-38
2022/12/01 03:29:23;;;;;;;38.20;14.80;;;5.60;99.90;;;;;;5062764;28;20037;-40
2022/12/01 03:32:04;;;;;;;46.47;17.63;;;5.60;99.90;;;;;;5061937;28;20045;-39
2022/12/01 03:34:42;;;;;;;42.03;15.50;;;5.60;99.90;;;;;;5062353;28;20059;-38
2022/12/01 03:37:14;;;;;;;41.47;17.40;;;5.60;99.90;;;;;;5061474;28;20355;-37
2022/12/01 03:39:41;;;;;;;36.45;16.08;;;5.60;99.90;;;;;;5062305;28;20594;-38
2022/12/01 03:42:22;;;;;;;40.40;15.88;;;5.60;99.90;;;;;;5062413;28;20064;-37
2022/12/01 03:44:52;;;;;;;34.65;13.32;;;5.60;99.90;;;;;;5057408;28;20045;-39
2022/12/01 03:47:24;;;;;;;39.47;15.25;;;5.60;99.90;;;;;;5061099;28;20074;-38
2022/12/01 03:49:52;;;;;;;36.45;15.38;;;5.60;99.90;;;;;;5063905;28;20066;-38
2022/12/01 03:52:44;;;;;;;34.45;14.70;;;5.60;99.90;;;;;;5062747;28;20112;-38
2022/12/01 03:55:27;;;;;;;35.60;14.73;;;5.60;99.90;;;;;;5060288;28;20044;-38
2022/12/01 03:58:01;;;;;;;36.25;14.30;;;5.60;99.90;;;;;;5058837;28;22454;-38
2022/12/01 04:00:27;;;;;;;37.83;14.85;;;5.60;99.90;;;;;;5059187;28;20102;-39
2022/12/01 04:02:58;;;;;;;43.72;17.10;;;5.60;99.90;;;;;;5066659;28;20469;-38
2022/12/01 04:05:25;;;;;;;40.25;14.93;;;5.60;99.90;;;;;;5040118;28;20510;-38
2022/12/01 04:07:51;;;;;;;44.05;17.05;;;5.60;99.90;;;;;;5055234;28;20044;-38
2022/12/01 04:10:17;;;;;;;40.90;15.98;;;5.60;99.90;;;;;;5058265;28;20068;-38
2022/12/01 04:12:43;;;;;;;36.17;14.63;;;5.50;99.90;;;;;;5062297;28;20071;-38
2022/12/01 04:15:13;;;;;;;45.25;16.45;;;5.50;99.90;;;;;;5054716;28;20148;-38
2022/12/01 04:17:42;;;;;;;42.25;16.23;;;5.50;99.90;;;;;;5058278;28;20516;-37
2022/12/01 04:20:09;;;;;;;42.53;15.15;;;5.50;99.90;;;;;;5063979;28;20037;-38
2022/12/01 04:22:35;;;;;;;36.20;16.13;;;5.50;99.90;;;;;;5060234;28;20049;-39
2022/12/01 04:25:02;;;;;;;33.80;13.85;;;5.50;99.90;;;;;;5042872;28;20067;-38
2022/12/01 04:27:27;;;;;;;35.03;15.27;;;5.40;99.90;;;;;;5065435;28;20505;-38
2022/12/01 04:29:53;;;;;;;39.38;15.48;;;5.40;99.90;;;;;;5065742;28;20054;-38
2022/12/01 04:32:19;;;;;;;39.10;15.27;;;5.40;99.90;;;;;;5063576;28;20021;-38
2022/12/01 04:34:44;;;;;;;30.20;13.23;;;5.40;99.90;;;;;;5066567;28;20040;-39
2022/12/01 04:37:11;;;;;;;36.13;15.65;;;5.30;99.90;;;;;;5060856;28;20119;-38
2022/12/01 04:39:37;;;;;;;35.88;14.02;;;5.30;99.90;;;;;;5045082;28;20043;-39
2022/12/01 04:42:03;;;;;;;38.60;14.15;;;5.20;99.90;;;;;;5061417;28;20051;-38
2022/12/01 04:44:29;;;;;;;38.25;15.55;;;5.20;99.90;;;;;;5064902;28;20033;-37
2022/12/01 04:46:55;;;;;;;31.50;13.35;;;5.10;99.90;;;;;;5067453;28;20040;-40
2022/12/01 04:49:21;;;;;;;37.75;16.23;;;5.00;99.90;;;;;;5054199;28;20039;-38
2022/12/01 04:51:47;;;;;;;33.85;15.07;;;5.00;99.90;;;;;;5056665;28;20115;-38
2022/12/01 04:54:14;;;;;;;33.83;14.10;;;4.90;99.90;;;;;;5042456;28;20131;-38
2022/12/01 04:56:40;;;;;;;32.95;13.57;;;4.80;99.90;;;;;;5057369;28;20036;-38
2022/12/01 04:59:06;;;;;;;38.40;15.20;;;4.80;99.90;;;;;;5059799;28;20456;-38
2022/12/01 05:01:31;;;;;;;32.45;13.52;;;4.80;99.90;;;;;;5059819;28;20431;-38
2022/12/01 05:03:57;;;;;;;32.40;13.65;;;4.80;99.90;;;;;;5058850;28;21355;-38
2022/12/01 05:06:27;;;;;;;32.00;13.80;;;4.90;99.90;;;;;;5061681;28;20037;-38
2022/12/01 05:08:58;;;;;;;35.85;14.27;;;4.90;99.90;;;;;;5060021;28;20039;-38
2022/12/01 05:11:26;;;;;;;34.13;14.48;;;4.90;99.90;;;;;;5062151;28;20040;-38
2022/12/01 05:13:51;;;;;;;35.80;14.73;;;4.90;99.90;;;;;;5059156;28;20163;-38
2022/12/01 05:16:20;;;;;;;36.38;15.40;;;4.90;99.90;;;;;;5063602;28;20067;-38
2022/12/01 05:21:39;;;;;;;36.92;14.70;;;5.00;99.90;;;;;;5057649;28;20127;-38
2022/12/01 05:24:05;;;;;;;36.50;14.10;;;5.00;99.90;;;;;;5061463;28;20052;-37
2022/12/01 05:26:31;;;;;;;39.90;15.23;;;5.10;99.90;;;;;;5059707;28;20489;-38
2022/12/01 05:28:57;;;;;;;44.03;16.55;;;5.10;99.90;;;;;;5064741;28;20060;-37
2022/12/01 05:31:22;;;;;;;37.95;16.23;;;5.10;99.90;;;;;;5061491;28;20095;-38
2022/12/01 05:33:48;;;;;;;45.55;17.48;;;5.10;99.90;;;;;;5056466;28;20515;-40
2022/12/01 05:36:14;;;;;;;39.92;15.55;;;5.10;99.90;;;;;;5057044;28;20063;-37
2022/12/01 05:38:39;;;;;;;45.10;17.50;;;5.10;99.90;;;;;;5062858;28;20048;-38
2022/12/01 05:41:05;;;;;;;40.10;16.70;;;5.10;99.90;;;;;;5057145;28;20078;-39
2022/12/01 05:43:31;;;;;;;42.13;16.42;;;5.10;99.90;;;;;;5077830;28;20123;-37
2022/12/01 05:45:57;;;;;;;45.80;17.42;;;5.10;99.90;;;;;;5062487;28;20045;-38
2022/12/01 05:48:23;;;;;;;46.65;17.75;;;5.10;99.90;;;;;;5057513;28;20545;-38
2022/12/01 05:50:49;;;;;;;42.50;17.60;;;5.10;99.90;;;;;;5060168;28;20041;-37
2022/12/01 05:53:15;;;;;;;49.72;17.50;;;5.10;99.90;;;;;;5060477;28;20111;-38
2022/12/01 05:55:41;;;;;;;46.53;17.63;;;5.10;99.90;;;;;;5058560;28;20033;-38
2022/12/01 05:58:07;;;;;;;44.35;17.50;;;5.10;99.90;;;;;;5059248;28;20032;-39
2022/12/01 06:00:33;;;;;;;40.83;16.52;;;5.10;99.90;;;;;;5063520;28;20060;-38
2022/12/01 06:02:59;;;;;;;43.13;17.08;;;5.10;99.90;;;;;;5060026;28;20070;-37
2022/12/01 06:05:25;;;;;;;44.85;17.05;;;5.10;99.90;;;;;;5057192;28;20115;-38
2022/12/01 06:07:50;;;;;;;37.03;15.15;;;5.10;99.90;;;;;;5058261;28;20067;-39
2022/12/01 06:10:16;;;;;;;46.42;17.40;;;5.10;99.90;;;;;;5057515;28;20489;-38
2022/12/01 06:12:42;;;;;;;36.60;15.50;;;5.10;99.90;;;;;;5056126;28;20032;-38
2022/12/01 06:15:09;;;;;;;35.80;15.13;;;5.10;99.90;;;;;;5056679;28;20033;-40
2022/12/01 06:17:35;;;;;;;42.10;17.25;;;5.10;99.90;;;;;;5054283;28;20064;-39
2022/12/01 06:20:01;;;;;;;40.65;17.52;;;5.10;99.90;;;;;;5056920;28;20102;-40
2022/12/01 06:22:26;;;;;;;38.35;16.30;;;5.20;99.90;;;;;;5055313;28;20044;-38
2022/12/01 06:24:52;;;;;;;39.92;15.30;;;5.20;99.90;;;;;;5062072;28;20085;-39
2022/12/01 06:27:18;;;;;;;41.80;17.52;;;5.20;99.90;;;;;;5052824;28;20103;-38
2022/12/01 06:29:44;;;;;;;43.40;17.15;;;5.20;99.90;;;;;;5054099;28;20040;-38
2022/12/01 06:32:09;;;;;;;46.50;18.38;;;5.20;99.90;;;;;;5051189;28;20051;-39
2022/12/01 06:34:35;;;;;;;39.40;16.92;;;5.20;99.90;;;;;;5052549;28;20048;-38
2022/12/01 06:37:01;;;;;;;37.22;14.57;;;5.20;99.90;;;;;;5036156;28;20057;-40
2022/12/01 06:39:26;;;;;;;48.15;16.77;;;5.20;99.90;;;;;;5034775;28;20045;-38
2022/12/01 06:41:52;;;;;;;38.17;14.75;;;5.20;99.90;;;;;;5037930;28;20033;-38
2022/12/01 06:44:18;;;;;;;44.05;17.45;;;5.20;99.90;;;;;;5045501;28;20039;-38
2022/12/01 06:46:43;;;;;;;48.67;17.65;;;5.20;99.90;;;;;;5041400;28;20044;-38
2022/12/01 06:49:12;;;;;;;39.70;16.27;;;5.20;99.90;;;;;;5043292;28;20489;-38
2022/12/01 06:51:38;;;;;;;47.70;18.67;;;5.20;99.90;;;;;;5035565;28;20059;-38
2022/12/01 06:54:04;;;;;;;38.13;16.17;;;5.20;99.90;;;;;;5037864;28;20029;-38
2022/12/01 06:56:30;;;;;;;42.72;17.58;;;5.20;99.90;;;;;;5039829;28;20517;-39
2022/12/01 06:58:56;;;;;;;44.35;17.33;;;5.20;99.90;;;;;;5042597;28;20037;-37
2022/12/01 07:01:22;;;;;;;40.45;16.25;;;5.20;99.90;;;;;;5040170;28;20072;-38
2022/12/01 07:03:49;;;;;;;48.00;18.13;;;5.20;99.90;;;;;;5030774;28;20087;-38
2022/12/01 07:06:15;;;;;;;43.72;16.92;;;5.20;99.90;;;;;;5039013;28;20087;-37
2022/12/01 07:08:41;;;;;;;46.72;17.33;;;5.20;99.90;;;;;;5038060;28;20447;-40
2022/12/01 07:11:12;;;;;;;36.92;14.80;;;5.20;99.90;;;;;;5045111;28;20090;-37
2022/12/01 07:13:39;;;;;;;39.15;15.07;;;5.20;99.90;;;;;;5041926;28;20029;-38
2022/12/01 07:16:06;;;;;;;39.08;15.88;;;5.10;99.90;;;;;;5037564;28;20426;-37
2022/12/01 07:18:32;;;;;;;40.70;14.50;;;5.20;99.90;;;;;;5042308;28;20864;-38
2022/12/01 07:21:04;;;;;;;51.55;19.10;;;5.10;99.90;;;;;;5035082;28;20045;-37
2022/12/01 07:23:30;;;;;;;41.10;15.55;;;5.10;99.90;;;;;;5042509;28;20080;-37
2022/12/01 07:26:03;;;;;;;37.75;15.65;;;5.00;99.90;;;;;;5047206;28;20052;-37
2022/12/01 07:28:29;;;;;;;46.08;16.58;;;5.00;99.90;;;;;;5041765;28;20040;-38
2022/12/01 07:31:07;;;;;;;38.42;16.20;;;4.90;99.90;;;;;;5042762;28;20087;-38
2022/12/01 07:33:33;;;;;;;39.88;17.15;;;4.80;99.90;;;;;;5023837;28;20029;-37
2022/12/01 07:35:59;;;;;;;37.70;16.60;;;4.70;99.90;;;;;;5047501;28;20052;-38
2022/12/01 07:38:27;;;;;;;37.42;15.25;;;4.60;99.90;;;;;;5052728;28;20548;-40
2022/12/01 07:40:53;;;;;;;34.22;14.25;;;4.50;99.90;;;;;;5053665;28;20041;-38
2022/12/01 07:43:18;;;;;;;44.72;17.98;;;4.40;99.90;;;;;;5057673;28;20259;-39
2022/12/01 07:45:44;;;;;;;38.17;16.30;;;4.40;99.90;;;;;;5056327;28;20057;-40
2022/12/01 07:48:10;;;;;;;42.13;16.15;;;4.30;99.90;;;;;;5062303;28;20122;-38
2022/12/01 07:50:35;;;;;;;39.67;16.65;;;4.20;99.90;;;;;;5049247;28;20576;-38
2022/12/01 07:53:01;;;;;;;41.83;16.55;;;4.20;99.90;;;;;;5065675;28;20494;-39
2022/12/01 07:55:26;;;;;;;39.60;16.92;;;4.20;99.90;;;;;;5058522;28;20040;-40
2022/12/01 07:57:55;;;;;;;41.28;16.60;;;4.10;99.90;;;;;;5059396;28;20029;-38
2022/12/01 08:00:21;;;;;;;37.38;16.02;;;4.10;99.90;;;;;;5055765;28;20032;-40
2022/12/01 08:02:49;;;;;;;41.67;17.15;;;4.10;99.90;;;;;;5062511;28;20051;-39
2022/12/01 08:05:15;;;;;;;42.92;16.75;;;4.00;99.90;;;;;;5064778;28;20051;-38
2022/12/01 08:07:41;;;;;;;43.33;17.42;;;4.00;99.90;;;;;;5063125;28;20040;-37
2022/12/01 08:10:07;;;;;;;52.22;19.17;;;4.00;99.90;;;;;;5060343;28;20102;-40
2022/12/01 08:12:32;;;;;;;48.28;17.67;;;4.00;99.90;;;;;;5058354;28;20033;-39
2022/12/01 08:14:58;;;;;;;42.47;16.08;;;4.00;99.90;;;;;;5060466;28;20032;-39
2022/12/01 08:17:26;;;;;;;45.03;17.23;;;4.00;99.90;;;;;;5061537;28;20028;-41
2022/12/01 08:19:52;;;;;;;55.92;18.63;;;4.00;99.90;;;;;;5063532;28;20404;-39
2022/12/01 08:22:18;;;;;;;43.78;17.52;;;4.00;99.90;;;;;;5057605;28;20036;-37
2022/12/01 08:24:43;;;;;;;47.95;18.17;;;4.10;99.90;;;;;;5058629;28;20036;-37
2022/12/01 08:27:09;;;;;;;53.75;18.65;;;4.10;99.90;;;;;;5054280;28;20055;-37
2022/12/01 08:29:35;;;;;;;52.85;19.45;;;4.10;99.90;;;;;;5067061;28;20040;-37
2022/12/01 08:32:00;;;;;;;42.30;18.42;;;4.10;99.90;;;;;;5061784;28;20509;-37
2022/12/01 08:34:26;;;;;;;34.95;15.25;;;4.10;99.90;;;;;;5052275;28;20049;-37
2022/12/01 08:36:52;;;;;;;46.75;18.55;;;4.20;99.90;;;;;;5059698;28;20051;-40
2022/12/01 08:39:17;;;;;;;46.28;16.13;;;4.20;99.90;;;;;;5059664;28;20043;-37
2022/12/01 08:41:43;;;;;;;53.42;19.15;;;4.30;99.90;;;;;;5064576;28;20044;-37
2022/12/01 08:44:09;;;;;;;48.63;18.83;;;4.40;99.90;;;;;;5061393;28;20447;-37
2022/12/01 08:46:35;;;;;;;49.45;18.30;;;4.50;99.90;;;;;;5066402;28;20537;-40
2022/12/01 08:49:03;;;;;;;49.70;18.98;;;4.60;99.90;;;;;;5062853;28;20052;-37
2022/12/01 08:51:29;;;;;;;48.78;18.30;;;4.70;99.90;;;;;;5056224;28;20067;-37
2022/12/01 08:53:56;;;;;;;57.20;19.48;;;4.70;99.90;;;;;;5058871;28;20037;-37
2022/12/01 08:56:37;;;;;;;39.97;16.15;;;4.70;99.90;;;;;;5064462;28;20498;-40
2022/12/01 08:59:03;;;;;;;39.20;16.25;;;4.70;99.90;;;;;;5055853;28;20405;-37
2022/12/01 09:01:29;;;;;;;38.78;17.00;;;4.70;99.90;;;;;;5055435;28;20049;-37
2022/12/01 09:04:07;;;;;;;47.90;18.70;;;4.70;99.90;;;;;;5057103;28;20053;-40
2022/12/01 09:06:41;;;;;;;47.60;18.52;;;4.60;99.90;;;;;;5061874;28;20116;-38
2022/12/01 09:09:09;;;;;;;50.28;18.58;;;4.60;99.90;;;;;;5060877;28;20040;-38
2022/12/01 09:11:35;;;;;;;44.88;17.38;;;4.50;99.90;;;;;;5063993;28;20067;-38
2022/12/01 09:14:01;;;;;;;40.50;15.32;;;4.50;99.90;;;;;;5060617;28;20059;-39
2022/12/01 09:16:27;;;;;;;38.95;16.30;;;4.40;99.90;;;;;;5063838;28;20048;-42
2022/12/01 09:18:53;;;;;;;45.78;18.05;;;4.40;99.90;;;;;;5058107;28;20398;-38
2022/12/01 09:21:22;;;;;;;50.08;18.60;;;4.40;99.90;;;;;;5062450;28;20163;-43
2022/12/01 09:23:48;;;;;;;47.20;19.20;;;4.40;99.90;;;;;;5058161;28;20044;-41
2022/12/01 09:26:17;;;;;;;46.75;17.52;;;4.40;99.90;;;;;;5061151;28;20053;-43
2022/12/01 09:28:48;;;;;;;73.80;19.08;;;4.50;99.90;;;;;;5061182;28;20059;-41
2022/12/01 09:31:15;;;;;;;92.13;20.48;;;4.50;99.90;;;;;;5058377;28;20044;-41
2022/12/01 09:33:45;;;;;;;134.00;24.38;;;4.60;99.90;;;;;;5062419;28;20078;-43
2022/12/01 09:36:12;;;;;;;108.65;20.25;;;4.60;99.90;;;;;;5051127;28;20045;-45
2022/12/01 09:38:38;;;;;;;109.00;21.00;;;4.70;99.90;;;;;;5057364;28;20036;-43
2022/12/01 09:41:44;;;;;;;123.88;20.17;;;4.80;99.90;;;;;;5062879;28;20634;-44
2022/12/01 09:44:14;;;;;;;67.57;18.75;;;4.80;99.90;;;;;;5063465;28;20051;-44
2022/12/01 09:46:48;;;;;;;55.95;16.98;;;4.80;99.90;;;;;;5064350;28;20452;-42
2022/12/01 09:49:23;;;;;;;67.88;17.25;;;4.90;99.90;;;;;;5058743;28;20080;-41
2022/12/01 09:51:53;;;;;;;98.25;21.30;;;4.90;99.90;;;;;;5066239;28;20490;-42
2022/12/01 09:54:19;;;;;;;52.78;17.17;;;5.00;99.90;;;;;;5059407;28;20529;-41
2022/12/01 09:56:49;;;;;;;48.15;17.27;;;5.10;99.90;;;;;;5063475;28;20036;-44
2022/12/01 09:59:26;;;;;;;55.70;18.00;;;5.20;99.90;;;;;;5061989;28;20057;-41
2022/12/01 10:02:01;;;;;;;49.67;17.40;;;5.20;99.90;;;;;;5064920;28;20701;-44
2022/12/01 10:04:34;;;;;;;52.38;18.48;;;5.30;99.90;;;;;;5059577;28;20041;-42
2022/12/01 10:07:04;;;;;;;43.13;17.25;;;5.40;99.90;;;;;;5060283;28;20103;-42
2022/12/01 10:09:54;;;;;;;42.20;17.67;;;5.40;99.90;;;;;;5058556;28;20045;-40
2022/12/01 10:12:26;;;;;;;44.85;17.73;;;5.50;99.90;;;;;;5060529;28;20505;-44
2022/12/01 10:14:54;;;;;;;41.00;16.77;;;5.50;99.90;;;;;;5054265;28;20024;-42
2022/12/01 10:17:38;;;;;;;39.13;15.75;;;5.60;99.90;;;;;;5057382;28;20044;-42
2022/12/01 10:20:22;;;;;;;44.45;17.15;;;5.70;99.90;;;;;;5055135;28;20040;-45
2022/12/01 10:23:19;;;;;;;37.20;15.63;;;5.80;99.90;;;;;;5058723;28;20052;-45
2022/12/01 10:25:55;;;;;;;41.63;16.85;;;5.90;99.90;;;;;;5045818;28;20053;-42
2022/12/01 10:29:07;;;;;;;38.20;17.13;;;6.00;99.90;;;;;;5053997;28;20049;-42
2022/12/01 10:31:54;;;;;;;45.88;17.83;;;6.00;99.90;;;;;;5050125;28;20051;-39
2022/12/01 10:34:35;;;;;;;42.08;17.10;;;6.10;99.90;;;;;;5053270;28;20064;-42
2022/12/01 10:37:01;;;;;;;37.28;16.13;;;6.10;99.90;;;;;;5053410;28;20056;-41
2022/12/01 10:39:37;;;;;;;42.17;16.85;;;6.20;99.90;;;;;;5047479;28;20036;-41
2022/12/01 10:42:26;;;;;;;40.92;16.80;;;6.50;99.90;;;;;;5056420;28;20094;-39
2022/12/01 10:44:54;;;;;;;45.92;18.98;;;6.90;99.90;;;;;;5067056;28;20072;-43
2022/12/01 10:47:23;;;;;;;40.95;18.48;;;7.30;99.90;;;;;;5058841;28;20028;-42
2022/12/01 10:49:49;;;;;;;38.85;17.90;;;7.60;99.90;;;;;;5061673;28;20040;-44
2022/12/01 10:52:38;;;;;;;41.75;17.10;;;7.90;99.90;;;;;;5049476;28;20044;-43
2022/12/01 10:55:27;;;;;;;32.95;16.58;;;8.20;99.90;;;;;;5055095;28;20112;-42
2022/12/01 10:57:56;;;;;;;35.90;16.10;;;8.60;99.90;;;;;;5050811;28;20116;-39
2022/12/01 11:00:24;;;;;;;36.50;16.35;;;8.80;99.90;;;;;;5056514;28;20112;-41
2022/12/01 11:02:50;;;;;;;37.35;16.65;;;9.10;99.90;;;;;;5057560;28;20049;-40
2022/12/01 11:05:29;;;;;;;38.40;16.13;;;9.30;99.90;;;;;;5057204;28;20117;-43
2022/12/01 11:07:55;;;;;;;37.03;17.35;;;9.60;99.90;;;;;;5051273;28;20498;-42
2022/12/01 11:10:30;;;;;;;32.25;14.93;;;9.80;99.90;;;;;;5053037;28;20045;-43
2022/12/01 11:13:12;;;;;;;33.90;15.90;;;10.10;99.90;;;;;;5063506;28;20524;-44
2022/12/01 11:15:40;;;;;;;28.73;15.15;;;10.40;99.90;;;;;;5060944;28;20485;-43
2022/12/01 11:18:28;;;;;;;29.17;15.10;;;10.50;99.90;;;;;;5055734;28;20080;-45
2022/12/01 11:21:15;;;;;;;28.45;13.63;;;10.70;99.90;;;;;;5053358;28;20040;-42
2022/12/01 11:23:49;;;;;;;28.15;13.20;;;10.90;99.90;;;;;;5057928;28;20040;-44
2022/12/01 11:26:23;;;;;;;26.42;13.38;;;11.00;99.90;;;;;;5059195;28;20033;-42
2022/12/01 11:28:51;;;;;;;30.73;14.13;;;11.20;99.90;;;;;;5061780;28;20036;-42
2022/12/01 11:31:18;;;;;;;26.95;14.18;;;11.30;99.90;;;;;;5063395;28;20547;-44
2022/12/01 11:33:51;;;;;;;28.15;14.13;;;11.40;99.90;;;;;;5061385;28;20098;-43
2022/12/01 11:36:45;;;;;;;24.40;13.23;;;11.50;99.90;;;;;;5068127;28;20055;-43
2022/12/01 11:39:32;;;;;;;28.67;13.63;;;11.70;99.90;;;;;;5052999;28;20056;-44
2022/12/01 11:42:14;;;;;;;24.58;13.65;;;12.00;99.90;;;;;;5060905;28;20509;-42
2022/12/01 11:44:49;;;;;;;26.13;13.80;;;12.20;99.90;;;;;;5062436;28;20044;-42
2022/12/01 11:47:21;;;;;;;26.33;13.82;;;12.30;99.90;;;;;;5062713;28;20494;-44
2022/12/01 11:49:52;;;;;;;26.67;13.73;;;12.50;99.90;;;;;;5053457;28;20045;-43
2022/12/01 11:52:26;;;;;;;24.35;13.95;;;12.50;99.90;;;;;;5056843;28;20037;-44
2022/12/01 11:55:00;;;;;;;26.02;12.93;;;12.80;99.90;;;;;;5068619;28;20028;-41
2022/12/01 11:57:28;;;;;;;23.70;13.27;;;13.00;99.90;;;;;;5063626;28;20526;-44
2022/12/01 11:59:54;;;;;;;23.38;12.98;;;13.20;99.90;;;;;;5054910;28;20190;-42
2022/12/01 12:02:41;;;;;;;22.60;13.60;;;13.30;99.90;;;;;;5061766;28;20060;-39
2022/12/01 12:05:25;;;;;;;26.35;13.20;;;13.50;99.90;;;;;;5066563;28;20036;-46
2022/12/01 12:08:10;;;;;;;24.48;13.75;;;13.60;99.90;;;;;;5058104;28;20115;-41
2022/12/01 12:10:57;;;;;;;26.00;12.68;;;13.60;99.90;;;;;;5057868;28;20046;-43
2022/12/01 12:14:04;;;;;;;25.45;13.88;;;13.70;99.60;;;;;;5059598;28;20048;-42
2022/12/01 12:16:57;;;;;;;22.13;12.48;;;13.70;99.90;;;;;;5053349;28;20080;-44
2022/12/01 12:19:43;;;;;;;21.83;12.18;;;14.00;99.90;;;;;;5052392;28;20497;-43
2022/12/01 12:22:34;;;;;;;19.35;10.60;;;14.10;99.30;;;;;;5055584;28;22255;-46
2022/12/01 12:25:18;;;;;;;18.25;10.55;;;14.20;99.60;;;;;;5058771;28;20055;-42
2022/12/01 12:28:08;;;;;;;19.15;11.50;;;13.80;98.60;;;;;;5056818;28;20044;-47
2022/12/01 12:30:45;;;;;;;22.15;11.43;;;13.80;98.00;;;;;;5050559;28;20044;-43
2022/12/01 12:33:22;;;;;;;21.20;10.93;;;13.90;98.40;;;;;;5059209;28;20524;-39
2022/12/01 12:36:24;;;;;;;17.95;10.68;;;14.20;98.40;;;;;;5054533;28;20047;-38
2022/12/01 12:39:27;;;;;;;21.45;12.32;;;14.40;96.00;;;;;;5055499;28;20528;-43
2022/12/01 12:41:55;;;;;;;21.10;11.90;;;14.60;94.20;;;;;;5058511;28;20070;-43
2022/12/01 12:44:47;;;;;;;20.30;11.85;;;14.80;96.90;;;;;;5052060;28;20052;-43
2022/12/01 12:47:43;;;;;;;20.27;12.45;;;14.90;95.00;;;;;;5061429;28;20040;-46
2022/12/01 12:50:16;;;;;;;20.92;11.98;;;14.80;94.50;;;;;;5055185;28;20094;-42
2022/12/01 12:52:52;;;;;;;20.63;12.43;;;14.20;96.20;;;;;;5060789;28;20040;-41
2022/12/01 12:55:35;;;;;;;19.15;11.18;;;13.40;95.60;;;;;;5064784;28;20513;-44
2022/12/01 12:58:14;;;;;;;19.23;11.35;;;12.80;96.90;;;;;;5060934;28;20523;-42
2022/12/01 13:00:47;;;;;;;19.40;11.00;;;12.20;98.10;;;;;;5062852;28;20625;-44
2022/12/01 13:03:34;;;;;;;20.98;11.20;;;11.70;99.50;;;;;;5057013;28;20040;-44
2022/12/01 13:06:12;;;;;;;19.98;11.55;;;11.30;98.60;;;;;;5055390;28;20040;-42